Time;durP1;ratioP1;P1;durP2;ratioP2;P2;SDS_P1;SDS_P2;PMS_P1;PMS_P2;Temp;Humidity;BMP_temperature;BMP_pressure;BME280_temperature;BME280_humidity;BME280_pressure;Samples;Min_cycle;Max_cycle;Signal;HPM_P1;HPM_P2
2022/08/12 00:44:41;;;;;;;8.50;2.22;;;;;;;;;;4994721;28;99163;-75
2022/08/12 00:47:09;;;;;;;5.20;2.53;;;;;;;;;;4992674;28;98371;-75
2022/08/12 00:49:51;;;;;;;;;;;;;;;;;;4992224;28;99298;-75
2022/08/12 00:52:18;;;;;;;10.98;2.47;;;;;;;;;;4991529;28;128216;-75
2022/08/12 00:54:46;;;;;;;5.75;2.75;;;;;;;;;;4992968;28;98548;-75
2022/08/12 00:57:14;;;;;;;4.03;2.40;;;;;;;;;;4992920;28;100185;-75
2022/08/12 00:59:47;;;;;;;5.55;2.60;;;;;;;;;;4991701;28;99610;-75
2022/08/12 01:02:23;;;;;;;6.55;2.88;;;;;;;;;;4992330;28;97773;-75
2022/08/12 01:13:07;;;;;;;7.63;2.65;;;;;;;;;;4992304;28;99330;-75
2022/08/12 01:15:46;;;;;;;2.50;2.30;;;;;;;;;;4992003;28;98617;-75
2022/08/12 01:18:12;;;;;;;3.85;2.65;;;;;;;;;;4991853;28;99077;-75
2022/08/12 01:20:46;;;;;;;8.18;2.58;;;;;;;;;;4991794;28;99275;-75
2022/08/12 01:23:27;;;;;;;2.58;2.47;;;;;;;;;;4991429;28;99005;-75
2022/08/12 01:25:54;;;;;;;12.15;3.88;;;;;;;;;;4991984;28;98900;-74
2022/08/12 01:28:23;;;;;;;6.53;3.08;;;;;;;;;;4992988;28;98764;-74
2022/08/12 01:30:49;;;;;;;5.63;2.58;;;;;;;;;;4994488;28;98610;-74
2022/08/12 01:33:17;;;;;;;5.40;2.70;;;;;;;;;;4991716;28;99364;-74
2022/08/12 01:35:47;;;;;;;4.38;2.83;;;;;;;;;;4991439;28;99324;-75
2022/08/12 01:38:34;;;;;;;3.70;2.80;;;;;;;;;;4990419;28;99603;-75
2022/08/12 01:41:01;;;;;;;10.73;2.55;;;;;;;;;;4991451;28;99547;-75
2022/08/12 01:43:30;;;;;;;5.35;2.97;;;;;;;;;;4991511;28;98571;-75
2022/08/12 01:46:02;;;;;;;8.82;3.40;;;;;;;;;;4990869;28;99128;-75
2022/08/12 01:48:53;;;;;;;3.95;2.88;;;;;;;;;;4991857;28;99872;-75
2022/08/12 01:51:25;;;;;;;5.40;2.75;;;;;;;;;;4991438;28;98489;-75
2022/08/12 01:54:13;;;;;;;5.25;3.38;;;;;;;;;;4994897;28;98791;-74
2022/08/12 01:56:47;;;;;;;8.63;3.20;;;;;;;;;;4992004;28;98500;-75
2022/08/12 02:02:28;;;;;;;6.60;3.33;;;;;;;;;;4929745;28;99644;-75
2022/08/12 02:14:00;;;;;;;3.60;2.80;;;;;;;;;;4992385;28;99382;-74
2022/08/12 02:16:38;;;;;;;3.25;2.92;;;;;;;;;;4994429;28;99332;-75
2022/08/12 02:19:10;;;;;;;3.33;3.03;;;;;;;;;;4992300;28;98478;-75
2022/08/12 02:22:01;;;;;;;5.85;3.17;;;;;;;;;;4992408;27;97921;-75
2022/08/12 02:24:31;;;;;;;6.93;3.30;;;;;;;;;;4990725;28;99378;-75
2022/08/12 02:26:59;;;;;;;12.88;4.32;;;;;;;;;;4990251;28;98504;-75
2022/08/12 02:29:25;;;;;;;7.00;3.30;;;;;;;;;;4991011;28;100139;-75
2022/08/12 02:31:52;;;;;;;7.10;3.30;;;;;;;;;;4990599;28;100278;-75
2022/08/12 02:34:19;;;;;;;3.85;2.95;;;;;;;;;;4990449;28;98535;-75
2022/08/12 02:36:46;;;;;;;7.53;3.10;;;;;;;;;;4991835;28;99367;-75
2022/08/12 02:39:17;;;;;;;6.20;3.40;;;;;;;;;;4994433;28;100402;-75
2022/08/12 02:41:45;;;;;;;9.23;3.13;;;;;;;;;;4990630;28;99971;-75
2022/08/12 02:44:14;;;;;;;5.30;3.35;;;;;;;;;;4990980;28;100646;-75
2022/08/12 02:46:42;;;;;;;5.95;3.40;;;;;;;;;;4991645;28;97801;-75
2022/08/12 02:49:13;;;;;;;5.05;3.92;;;;;;;;;;4990952;28;101010;-75
2022/08/12 02:51:45;;;;;;;3.72;3.42;;;;;;;;;;4990672;28;99172;-75
2022/08/12 02:54:11;;;;;;;6.72;3.85;;;;;;;;;;4971002;28;99310;-75
2022/08/12 02:56:39;;;;;;;7.32;3.22;;;;;;;;;;4970066;28;99762;-75
2022/08/12 02:59:09;;;;;;;8.18;3.88;;;;;;;;;;4970971;28;99391;-75
2022/08/12 03:01:38;;;;;;;4.05;3.65;;;;;;;;;;4973660;28;98521;-75
2022/08/12 03:04:18;;;;;;;9.23;3.75;;;;;;;;;;4970866;28;100376;-75
2022/08/12 03:07:05;;;;;;;6.60;3.90;;;;;;;;;;4971565;28;98507;-75
2022/08/12 03:09:35;;;;;;;4.93;4.35;;;;;;;;;;4970654;28;99979;-75
2022/08/12 03:12:21;;;;;;;4.72;3.53;;;;;;;;;;4971189;28;99936;-75
2022/08/12 03:14:49;;;;;;;13.38;4.10;;;;;;;;;;4972907;28;98555;-75
2022/08/12 03:17:32;;;;;;;10.18;4.40;;;;;;;;;;4974242;28;99920;-75
2022/08/12 03:19:59;;;;;;;4.53;4.03;;;;;;;;;;4973174;28;100182;-75
2022/08/12 03:22:39;;;;;;;13.00;4.38;;;;;;;;;;4982853;28;98828;-75
2022/08/12 03:25:11;;;;;;;8.00;4.72;;;;;;;;;;4997026;28;99646;-75
2022/08/12 03:27:50;;;;;;;7.10;3.80;;;;;;;;;;4994061;28;98420;-75
2022/08/12 03:30:17;;;;;;;11.75;5.00;;;;;;;;;;4993236;28;99321;-76
2022/08/12 03:32:46;;;;;;;5.00;4.13;;;;;;;;;;4993830;28;100227;-75
2022/08/12 03:35:16;;;;;;;6.60;4.15;;;;;;;;;;4993912;28;98560;-75
2022/08/12 03:38:05;;;;;;;7.72;4.28;;;;;;;;;;4993794;28;99906;-75
2022/08/12 04:02:57;;;;;;;6.75;4.80;;;;;;;;;;4993138;28;99422;-76
2022/08/12 04:05:24;;;;;;;5.60;4.20;;;;;;;;;;4993405;28;98172;-75
2022/08/12 04:08:11;;;;;;;7.20;4.85;;;;;;;;;;4993841;28;99218;-75
2022/08/12 04:13:24;;;;;;;5.43;4.93;;;;;;;;;;4995222;28;99287;-75
2022/08/12 04:15:51;;;;;;;5.20;4.70;;;;;;;;;;4992277;28;99350;-75
2022/08/12 04:18:17;;;;;;;5.15;4.65;;;;;;;;;;4993048;28;98473;-75
2022/08/12 04:20:47;;;;;;;10.18;5.00;;;;;;;;;;4992096;28;99194;-75
2022/08/12 04:23:14;;;;;;;9.48;4.68;;;;;;;;;;4991242;28;99272;-75
2022/08/12 04:25:42;;;;;;;7.25;4.82;;;;;;;;;;4991480;28;99132;-75
2022/08/12 04:28:09;;;;;;;6.20;5.57;;;;;;;;;;4992437;28;98961;-75
2022/08/12 04:30:39;;;;;;;7.82;5.00;;;;;;;;;;4992996;28;99216;-75
2022/08/12 04:33:08;;;;;;;5.85;4.55;;;;;;;;;;4995618;28;99087;-75
2022/08/12 04:35:34;;;;;;;5.55;5.05;;;;;;;;;;4991923;28;99209;-75
2022/08/12 04:38:01;;;;;;;7.32;4.97;;;;;;;;;;4992829;28;99624;-75
2022/08/12 04:40:29;;;;;;;8.57;4.95;;;;;;;;;;4992208;28;99774;-75
2022/08/12 04:42:55;;;;;;;5.45;5.05;;;;;;;;;;4992589;28;100308;-76
2022/08/12 04:45:22;;;;;;;12.32;4.55;;;;;;;;;;4993987;28;98579;-75
2022/08/12 04:47:48;;;;;;;10.75;4.18;;;;;;;;;;4993063;28;98947;-74
2022/08/12 04:50:16;;;;;;;4.80;4.45;;;;;;;;;;4992312;28;99188;-75
2022/08/12 04:53:03;;;;;;;8.07;4.38;;;;;;;;;;4992914;28;98498;-75
2022/08/12 04:55:29;;;;;;;6.25;4.13;;;;;;;;;;4994788;28;98954;-75
2022/08/12 04:57:56;;;;;;;6.00;4.90;;;;;;;;;;4992639;28;98823;-75
2022/08/12 05:00:22;;;;;;;11.70;4.65;;;;;;;;;;4992908;28;99965;-75
2022/08/12 05:02:48;;;;;;;5.25;4.75;;;;;;;;;;4991064;28;101081;-75
2022/08/12 05:05:17;;;;;;;5.80;4.82;;;;;;;;;;4993104;28;98761;-75
2022/08/12 05:07:44;;;;;;;6.05;4.93;;;;;;;;;;4992649;28;98904;-75
2022/08/12 05:10:21;;;;;;;5.65;5.15;;;;;;;;;;4992147;28;100269;-75
2022/08/12 05:13:01;;;;;;;11.00;4.68;;;;;;;;;;4992981;28;98531;-75
2022/08/12 05:15:28;;;;;;;8.55;5.38;;;;;;;;;;4991838;28;100172;-75
2022/08/12 05:17:55;;;;;;;5.72;5.15;;;;;;;;;;4995732;28;100286;-75
2022/08/12 05:20:38;;;;;;;6.60;5.85;;;;;;;;;;4993535;28;99221;-75
2022/08/12 05:23:14;;;;;;;11.05;4.95;;;;;;;;;;4991976;28;99341;-75
2022/08/12 05:25:41;;;;;;;6.07;5.30;;;;;;;;;;4991440;28;98481;-75
2022/08/12 05:28:08;;;;;;;8.15;5.32;;;;;;;;;;4992174;28;99220;-75
2022/08/12 05:30:34;;;;;;;6.70;5.18;;;;;;;;;;4991818;28;98586;-75
2022/08/12 05:33:04;;;;;;;10.73;6.47;;;;;;;;;;4992976;28;98522;-75
2022/08/12 05:35:38;;;;;;;5.20;4.85;;;;;;;;;;4992838;28;99316;-75
2022/08/12 05:40:50;;;;;;;9.63;5.22;;;;;;;;;;4996400;28;99790;-75
2022/08/12 05:43:16;;;;;;;11.85;5.75;;;;;;;;;;4991427;28;99313;-75
2022/08/12 05:45:44;;;;;;;8.48;5.22;;;;;;;;;;4992940;28;97816;-75
2022/08/12 05:48:10;;;;;;;8.02;5.03;;;;;;;;;;4992523;28;98431;-75
2022/08/12 05:50:37;;;;;;;7.90;5.72;;;;;;;;;;4990926;28;100275;-75
2022/08/12 05:53:05;;;;;;;7.40;5.07;;;;;;;;;;4991492;28;99253;-75
2022/08/12 05:55:33;;;;;;;6.40;5.68;;;;;;;;;;4991832;28;99975;-75
2022/08/12 05:58:01;;;;;;;9.18;6.00;;;;;;;;;;4990909;28;100209;-75
2022/08/12 06:00:30;;;;;;;7.80;5.75;;;;;;;;;;4992109;28;98830;-75
2022/08/12 06:02:59;;;;;;;6.13;5.05;;;;;;;;;;4995000;28;99171;-75
2022/08/12 06:05:27;;;;;;;5.40;5.00;;;;;;;;;;4991050;28;98489;-75
2022/08/12 06:07:54;;;;;;;8.90;5.85;;;;;;;;;;4991732;28;100035;-75
2022/08/12 06:10:28;;;;;;;10.38;5.53;;;;;;;;;;4992558;28;98726;-75
2022/08/12 06:13:02;;;;;;;5.50;5.00;;;;;;;;;;4991520;28;98489;-75
2022/08/12 06:15:36;;;;;;;10.27;6.00;;;;;;;;;;4992563;28;99827;-75
2022/08/12 06:18:04;;;;;;;6.93;5.77;;;;;;;;;;4991310;28;100175;-75
2022/08/12 06:20:42;;;;;;;9.15;5.85;;;;;;;;;;4991975;28;98521;-75
2022/08/12 06:23:10;;;;;;;14.90;6.13;;;;;;;;;;4994734;28;99808;-75
2022/08/12 06:25:36;;;;;;;11.07;5.70;;;;;;;;;;4989893;28;98552;-75
2022/08/12 06:28:11;;;;;;;14.80;5.85;;;;;;;;;;4991499;28;98833;-75
2022/08/12 06:30:39;;;;;;;12.45;6.47;;;;;;;;;;4991636;28;99683;-75
2022/08/12 06:33:07;;;;;;;15.85;6.07;;;;;;;;;;4991627;28;98412;-75
2022/08/12 06:35:48;;;;;;;13.38;6.07;;;;;;;;;;4992522;28;100645;-75
2022/08/12 06:38:17;;;;;;;7.55;6.07;;;;;;;;;;4991232;28;100217;-75
2022/08/12 06:43:32;;;;;;;6.70;5.57;;;;;;;;;;4991661;28;99116;-75
2022/08/12 06:46:20;;;;;;;7.55;5.55;;;;;;;;;;4994419;28;99276;-75
2022/08/12 06:48:48;;;;;;;7.93;6.18;;;;;;;;;;4991128;28;98846;-75
2022/08/12 06:51:16;;;;;;;6.22;5.55;;;;;;;;;;4995139;28;100292;-75
2022/08/12 06:53:43;;;;;;;12.95;6.30;;;;;;;;;;4993238;28;99448;-75
2022/08/12 06:56:09;;;;;;;11.63;6.28;;;;;;;;;;4994736;28;101388;-75
2022/08/12 06:58:38;;;;;;;7.60;6.05;;;;;;;;;;4994307;28;98407;-74
2022/08/12 07:01:05;;;;;;;9.90;6.15;;;;;;;;;;4994116;28;98266;-74
2022/08/12 07:03:32;;;;;;;7.13;5.68;;;;;;;;;;4994473;28;99270;-75
2022/08/12 07:06:02;;;;;;;8.68;5.72;;;;;;;;;;4993743;28;99161;-75
2022/08/12 07:08:30;;;;;;;9.77;5.88;;;;;;;;;;4996595;28;99275;-75
2022/08/12 07:11:00;;;;;;;7.88;5.00;;;;;;;;;;4994082;28;100189;-75
2022/08/12 07:13:37;;;;;;;20.65;5.68;;;;;;;;;;4994913;28;98543;-75
2022/08/12 07:16:25;;;;;;;11.23;5.47;;;;;;;;;;4994223;28;98569;-76
2022/08/12 07:18:54;;;;;;;7.43;5.55;;;;;;;;;;4995783;28;99554;-76
2022/08/12 07:21:21;;;;;;;6.20;5.07;;;;;;;;;;5002821;28;98694;-76
2022/08/12 07:23:49;;;;;;;5.72;4.50;;;;;;;;;;4995441;28;98970;-76
2022/08/12 07:26:15;;;;;;;8.65;4.70;;;;;;;;;;4999589;28;99612;-76
2022/08/12 07:28:42;;;;;;;11.40;5.18;;;;;;;;;;4995364;28;98976;-76
2022/08/12 07:31:11;;;;;;;10.15;4.57;;;;;;;;;;4997648;28;98695;-76
2022/08/12 07:33:42;;;;;;;10.85;5.15;;;;;;;;;;4993921;28;99195;-76
2022/08/12 07:36:12;;;;;;;9.88;4.50;;;;;;;;;;4993381;28;99664;-76
2022/08/12 07:38:42;;;;;;;9.00;4.45;;;;;;;;;;4993716;28;99426;-76
2022/08/12 07:41:12;;;;;;;10.73;4.75;;;;;;;;;;4994839;28;99112;-76
2022/08/12 07:44:01;;;;;;;12.85;4.55;;;;;;;;;;4993843;28;99982;-77
2022/08/12 07:46:35;;;;;;;9.73;4.78;;;;;;;;;;4993658;28;100540;-77
2022/08/12 07:49:04;;;;;;;9.30;3.38;;;;;;;;;;4994030;28;98869;-77
2022/08/12 07:51:31;;;;;;;9.32;3.80;;;;;;;;;;4993212;28;99964;-77
2022/08/12 07:53:58;;;;;;;8.30;4.53;;;;;;;;;;4996735;28;100439;-77
2022/08/12 07:56:29;;;;;;;9.57;4.57;;;;;;;;;;4993846;28;99023;-77
2022/08/12 07:58:57;;;;;;;13.50;4.53;;;;;;;;;;4992066;28;100775;-75
2022/08/12 08:01:24;;;;;;;5.15;3.97;;;;;;;;;;4993554;28;98528;-77
2022/08/12 08:06:43;;;;;;;7.95;4.60;;;;;;;;;;4992926;28;100403;-76
2022/08/12 08:09:11;;;;;;;14.02;4.40;;;;;;;;;;4993867;28;98480;-76
2022/08/12 08:14:27;;;;;;;9.80;3.75;;;;;;;;;;4993016;28;100307;-76
2022/08/12 08:16:54;;;;;;;17.30;4.22;;;;;;;;;;4996717;28;98131;-76
2022/08/12 08:19:24;;;;;;;6.00;4.20;;;;;;;;;;4973216;28;99394;-75
2022/08/12 08:21:53;;;;;;;12.73;4.80;;;;;;;;;;4972413;28;98564;-76
2022/08/12 08:24:23;;;;;;;6.65;3.70;;;;;;;;;;4973279;28;100528;-76
2022/08/12 08:27:02;;;;;;;9.32;4.15;;;;;;;;;;4989351;28;99533;-76
2022/08/12 08:29:34;;;;;;;5.93;3.65;;;;;;;;;;4992937;28;98483;-76
2022/08/12 08:32:08;;;;;;;9.15;3.75;;;;;;;;;;4992987;28;99003;-76
2022/08/12 08:34:35;;;;;;;9.40;3.53;;;;;;;;;;4992795;28;101350;-76
2022/08/12 08:37:19;;;;;;;10.60;4.22;;;;;;;;;;4996421;28;98416;-76
2022/08/12 08:39:46;;;;;;;18.58;3.70;;;;;;;;;;4991829;28;99487;-76
2022/08/12 08:45:00;;;;;;;7.65;3.30;;;;;;;;;;4993342;28;99086;-76
2022/08/12 08:47:26;;;;;;;10.27;3.63;;;;;;;;;;4991958;28;99424;-76
2022/08/12 08:49:56;;;;;;;14.60;4.00;;;;;;;;;;4992165;28;99299;-76
2022/08/12 08:52:24;;;;;;;9.65;3.17;;;;;;;;;;4992644;28;99858;-76
2022/08/12 08:55:06;;;;;;;15.20;3.67;;;;;;;;;;4992258;28;99273;-76
2022/08/12 08:57:33;;;;;;;15.43;3.42;;;;;;;;;;4992548;28;98518;-76
2022/08/12 09:00:18;;;;;;;12.75;3.35;;;;;;;;;;4994770;28;99323;-76
2022/08/12 09:02:46;;;;;;;14.85;3.17;;;;;;;;;;4991792;28;98499;-76
2022/08/12 09:05:24;;;;;;;10.98;3.15;;;;;;;;;;4993069;28;99728;-76
2022/08/12 09:07:51;;;;;;;11.55;3.55;;;;;;;;;;4992540;28;98688;-75
2022/08/12 09:10:37;;;;;;;8.95;3.47;;;;;;;;;;4992255;28;98840;-76
2022/08/12 09:13:31;;;;;;;10.50;3.05;;;;;;;;;;4992055;28;100174;-76
2022/08/12 09:16:19;;;;;;;6.10;3.10;;;;;;;;;;4991821;28;100150;-76
2022/08/12 09:18:46;;;;;;;8.27;3.40;;;;;;;;;;4991242;28;98625;-76
2022/08/12 09:21:17;;;;;;;10.90;3.33;;;;;;;;;;4992040;28;99272;-76
2022/08/12 09:23:44;;;;;;;13.40;3.40;;;;;;;;;;4995297;28;99507;-76
2022/08/12 09:26:29;;;;;;;9.55;3.38;;;;;;;;;;4993577;28;99023;-76
2022/08/12 09:28:56;;;;;;;16.23;3.20;;;;;;;;;;4991318;28;99528;-76
2022/08/12 09:31:23;;;;;;;12.82;3.38;;;;;;;;;;4992926;28;98504;-76
2022/08/12 09:34:12;;;;;;;9.15;3.17;;;;;;;;;;4993971;27;99026;-76
2022/08/12 09:36:58;;;;;;;6.07;2.83;;;;;;;;;;4991145;28;100347;-77
2022/08/12 09:39:30;;;;;;;7.85;3.00;;;;;;;;;;4992114;28;98523;-76
2022/08/12 09:45:22;;;;;;;12.57;2.90;;;;;;;;;;4991841;28;99569;-76
2022/08/12 09:48:08;;;;;;;10.30;2.72;;;;;;;;;;4994092;28;98570;-76
2022/08/12 09:50:35;;;;;;;3.40;2.40;;;;;;;;;;4990938;28;99130;-76
2022/08/12 09:53:06;;;;;;;12.18;2.80;;;;;;;;;;4991453;28;98499;-76
2022/08/12 09:55:41;;;;;;;7.20;2.65;;;;;;;;;;4991915;28;99988;-77
2022/08/12 09:58:28;;;;;;;9.65;2.40;;;;;;;;;;4990561;28;99377;-76
2022/08/12 10:01:17;;;;;;;7.00;2.03;;;;;;;;;;4992454;28;97814;-75
2022/08/12 10:03:49;;;;;;;9.68;2.70;;;;;;;;;;4991234;28;98537;-76
2022/08/12 10:06:30;;;;;;;7.43;2.55;;;;;;;;;;4991586;28;99363;-76
2022/08/12 10:09:03;;;;;;;11.80;2.60;;;;;;;;;;4991407;28;99348;-76
2022/08/12 10:14:34;;;;;;;4.10;2.40;;;;;;;;;;4991495;28;98498;-76
2022/08/12 10:17:03;;;;;;;10.55;2.30;;;;;;;;;;4991141;28;98798;-76
2022/08/12 10:19:36;;;;;;;6.18;2.70;;;;;;;;;;4990928;28;99423;-76
2022/08/12 10:22:04;;;;;;;8.90;2.80;;;;;;;;;;4992272;27;98608;-76
2022/08/12 10:24:42;;;;;;;12.80;2.90;;;;;;;;;;4990578;28;99661;-75
2022/08/12 10:30:23;;;;;;;8.35;2.53;;;;;;;;;;4991929;28;98897;-76
2022/08/12 10:33:07;;;;;;;6.40;2.25;;;;;;;;;;4991196;28;100267;-77
2022/08/12 10:35:48;;;;;;;7.90;3.10;;;;;;;;;;4993431;28;101086;-77
2022/08/12 10:38:18;;;;;;;6.32;2.05;;;;;;;;;;4991729;28;100216;-76
2022/08/12 10:44:11;;;;;;;5.55;2.28;;;;;;;;;;4991582;28;98855;-76
2022/08/12 10:46:44;;;;;;;4.72;1.90;;;;;;;;;;4990400;28;98927;-76
2022/08/12 10:49:15;;;;;;;9.13;2.42;;;;;;;;;;4991196;28;100166;-76
2022/08/12 10:52:03;;;;;;;9.63;2.30;;;;;;;;;;4991005;28;98564;-76
2022/08/12 10:54:49;;;;;;;7.55;2.35;;;;;;;;;;4990761;28;99177;-76
2022/08/12 10:57:16;;;;;;;6.80;2.20;;;;;;;;;;4994082;28;100263;-76
2022/08/12 11:00:03;;;;;;;2.25;1.85;;;;;;;;;;4990674;28;100204;-76
2022/08/12 11:02:53;;;;;;;4.63;2.20;;;;;;;;;;4990090;28;100890;-76
2022/08/12 11:05:39;;;;;;;3.75;2.00;;;;;;;;;;4991170;28;98620;-76
2022/08/12 11:08:28;;;;;;;5.40;2.08;;;;;;;;;;4990498;28;100651;-76
2022/08/12 11:11:08;;;;;;;7.13;2.38;;;;;;;;;;4991129;28;100062;-75
2022/08/12 11:13:42;;;;;;;5.55;2.03;;;;;;;;;;4990785;28;99296;-76
2022/08/12 11:16:16;;;;;;;5.07;1.90;;;;;;;;;;4990842;28;100460;-76
2022/08/12 11:18:48;;;;;;;2.97;1.80;;;;;;;;;;4990337;28;99336;-76
2022/08/12 11:21:22;;;;;;;5.57;1.92;;;;;;;;;;4994286;28;97809;-76
2022/08/12 11:24:10;;;;;;;4.03;2.25;;;;;;;;;;4990069;28;99381;-76
2022/08/12 11:26:57;;;;;;;5.53;2.08;;;;;;;;;;4989675;28;98542;-77
2022/08/12 11:29:25;;;;;;;13.23;2.63;;;;;;;;;;4989106;28;100480;-76
2022/08/12 11:32:12;;;;;;;4.95;2.03;;;;;;;;;;4990450;28;100184;-76
2022/08/12 11:34:39;;;;;;;2.90;2.45;;;;;;;;;;4990588;28;98493;-76
2022/08/12 11:37:20;;;;;;;1.75;1.60;;;;;;;;;;4994249;28;99826;-76
2022/08/12 11:39:53;;;;;;;2.67;1.95;;;;;;;;;;4993642;28;100270;-76
2022/08/12 11:42:35;;;;;;;3.95;1.90;;;;;;;;;;4993402;28;98421;-76
2022/08/12 11:45:05;;;;;;;4.15;1.92;;;;;;;;;;4997459;28;99530;-76
2022/08/12 11:47:35;;;;;;;7.20;2.03;;;;;;;;;;4994421;28;97763;-76
2022/08/12 11:50:06;;;;;;;5.43;1.90;;;;;;;;;;4992908;28;98550;-76
2022/08/12 11:52:32;;;;;;;5.75;2.03;;;;;;;;;;4994140;28;99774;-76
2022/08/12 11:55:19;;;;;;;8.35;2.03;;;;;;;;;;4993666;28;99449;-76
2022/08/12 11:57:55;;;;;;;10.57;2.28;;;;;;;;;;4992447;28;99573;-76
2022/08/12 12:00:41;;;;;;;3.88;1.88;;;;;;;;;;4992789;28;99401;-76
2022/08/12 12:03:28;;;;;;;8.80;1.90;;;;;;;;;;4993053;28;98836;-76
2022/08/12 12:06:12;;;;;;;8.25;2.30;;;;;;;;;;4993926;28;100720;-76
2022/08/12 12:08:43;;;;;;;5.82;1.88;;;;;;;;;;4996180;28;100256;-76
2022/08/12 12:11:16;;;;;;;5.82;2.00;;;;;;;;;;4992603;28;100011;-76
2022/08/12 12:13:43;;;;;;;11.80;2.53;;;;;;;;;;4993362;28;98798;-76
2022/08/12 12:16:29;;;;;;;3.25;2.13;;;;;;;;;;4993674;28;98541;-76
2022/08/12 12:18:57;;;;;;;9.13;2.28;;;;;;;;;;4992697;28;99850;-76
2022/08/12 12:21:23;;;;;;;5.95;2.22;;;;;;;;;;4992394;28;100229;-76
2022/08/12 12:24:09;;;;;;;5.78;2.00;;;;;;;;;;4992873;28;98948;-76
2022/08/12 12:26:36;;;;;;;10.85;2.03;;;;;;;;;;4993632;28;99965;-76
2022/08/12 12:29:03;;;;;;;7.60;2.08;;;;;;;;;;4992481;28;99866;-76
2022/08/12 12:31:50;;;;;;;4.63;2.15;;;;;;;;;;4997528;28;99658;-76
2022/08/12 12:34:36;;;;;;;1.60;1.50;;;;;;;;;;4992677;28;99254;-76
2022/08/12 12:37:03;;;;;;;9.38;1.83;;;;;;;;;;4994169;28;98568;-76
2022/08/12 12:39:31;;;;;;;4.28;1.80;;;;;;;;;;4992942;28;101291;-76
2022/08/12 12:42:17;;;;;;;3.22;1.80;;;;;;;;;;4992821;28;100126;-76
2022/08/12 12:45:04;;;;;;;5.32;2.05;;;;;;;;;;4993186;28;98458;-76
2022/08/12 12:48:03;;;;;;;2.25;2.15;;;;;;;;;;4991302;28;100248;-76
2022/08/12 12:50:34;;;;;;;4.68;1.92;;;;;;;;;;4992661;28;100886;-76
2022/08/12 12:53:20;;;;;;;2.75;1.98;;;;;;;;;;4992107;28;99286;-76
2022/08/12 12:56:12;;;;;;;8.48;2.20;;;;;;;;;;4995527;28;101521;-76
2022/08/12 12:58:39;;;;;;;4.15;1.83;;;;;;;;;;4992000;28;98648;-76
2022/08/12 13:01:09;;;;;;;5.07;2.13;;;;;;;;;;4991749;28;98940;-76
2022/08/12 13:03:55;;;;;;;1.73;1.63;;;;;;;;;;4992048;28;100348;-76
2022/08/12 13:06:28;;;;;;;9.25;2.55;;;;;;;;;;4992362;28;97842;-76
2022/08/12 13:08:56;;;;;;;5.28;1.80;;;;;;;;;;4992176;28;98448;-76
2022/08/12 13:11:28;;;;;;;4.95;1.75;;;;;;;;;;4992230;28;100392;-77
2022/08/12 13:14:07;;;;;;;8.23;1.90;;;;;;;;;;4991565;28;99791;-77
2022/08/12 13:16:54;;;;;;;11.10;2.13;;;;;;;;;;4995022;28;98477;-75
2022/08/12 13:19:22;;;;;;;2.78;2.45;;;;;;;;;;4992771;28;98442;-77
2022/08/12 13:22:17;;;;;;;2.65;2.10;;;;;;;;;;4991812;28;100083;-77
2022/08/12 13:24:53;;;;;;;8.15;2.20;;;;;;;;;;4991373;28;99499;-77
2022/08/12 13:27:23;;;;;;;4.72;1.83;;;;;;;;;;4991856;28;98539;-77
2022/08/12 13:30:02;;;;;;;5.47;2.05;;;;;;;;;;4992163;28;99398;-77
2022/08/12 13:32:32;;;;;;;4.10;2.25;;;;;;;;;;4992103;28;98473;-76
2022/08/12 13:34:59;;;;;;;8.80;2.50;;;;;;;;;;4990960;28;98885;-75
2022/08/12 13:37:51;;;;;;;4.80;2.50;;;;;;;;;;4991805;28;100179;-76
2022/08/12 13:40:26;;;;;;;8.48;2.20;;;;;;;;;;4994109;28;101072;-76
2022/08/12 13:42:56;;;;;;;3.25;2.15;;;;;;;;;;4991138;28;100716;-76
2022/08/12 13:45:28;;;;;;;4.80;1.60;;;;;;;;;;4991725;28;99341;-76
2022/08/12 13:47:59;;;;;;;9.05;2.45;;;;;;;;;;4991730;28;99205;-76
2022/08/12 13:50:31;;;;;;;2.28;1.98;;;;;;;;;;4991544;28;99125;-76
2022/08/12 13:53:01;;;;;;;6.43;2.10;;;;;;;;;;4991512;28;100299;-76
2022/08/12 13:55:50;;;;;;;2.08;1.85;;;;;;;;;;4990734;28;99086;-75
2022/08/12 13:58:28;;;;;;;6.05;2.13;;;;;;;;;;4992069;28;99160;-76
2022/08/12 14:00:56;;;;;;;5.30;1.90;;;;;;;;;;4991432;28;100275;-76
2022/08/12 14:03:23;;;;;;;7.82;2.40;;;;;;;;;;4994495;28;98535;-76
2022/08/12 14:05:58;;;;;;;2.00;1.80;;;;;;;;;;4990932;28;100346;-76
2022/08/12 14:08:24;;;;;;;3.30;1.97;;;;;;;;;;4991655;28;98773;-77
2022/08/12 14:10:59;;;;;;;8.00;2.20;;;;;;;;;;4991048;28;99393;-75
2022/08/12 14:13:29;;;;;;;6.18;1.88;;;;;;;;;;4991277;28;100223;-76
2022/08/12 14:16:16;;;;;;;2.67;2.30;;;;;;;;;;4991890;28;98564;-75
2022/08/12 14:19:03;;;;;;;2.72;1.80;;;;;;;;;;4992041;28;100280;-75
2022/08/12 14:21:36;;;;;;;6.07;2.30;;;;;;;;;;4990753;28;99331;-75
2022/08/12 14:24:23;;;;;;;2.63;1.90;;;;;;;;;;4991909;28;98024;-75
2022/08/12 14:26:52;;;;;;;5.97;2.13;;;;;;;;;;4994232;28;98784;-75
2022/08/12 14:29:20;;;;;;;6.63;2.20;;;;;;;;;;4991644;28;98559;-75
2022/08/12 14:32:06;;;;;;;3.35;1.95;;;;;;;;;;4990456;28;99778;-76
2022/08/12 14:34:42;;;;;;;7.93;2.25;;;;;;;;;;4991114;28;99228;-76
2022/08/12 14:37:09;;;;;;;3.65;2.20;;;;;;;;;;4991627;28;98393;-76
2022/08/12 14:39:40;;;;;;;8.45;2.45;;;;;;;;;;4990482;28;99113;-76
2022/08/12 14:42:16;;;;;;;3.63;1.90;;;;;;;;;;4990595;28;99207;-75
2022/08/12 14:44:44;;;;;;;3.70;2.28;;;;;;;;;;4990896;28;98595;-76
2022/08/12 14:47:27;;;;;;;5.88;2.17;;;;;;;;;;4991765;28;98468;-75
2022/08/12 14:50:00;;;;;;;2.88;2.17;;;;;;;;;;4994593;28;99540;-75
2022/08/12 14:52:48;;;;;;;4.13;2.42;;;;;;;;;;4988760;28;102098;-75
2022/08/12 14:55:34;;;;;;;6.78;2.20;;;;;;;;;;4990842;28;99408;-75
2022/08/12 14:58:20;;;;;;;4.32;1.85;;;;;;;;;;4989613;28;99440;-75
2022/08/12 15:03:32;;;;;;;9.05;2.15;;;;;;;;;;4992107;27;99290;-74
2022/08/12 15:06:19;;;;;;;6.72;2.40;;;;;;;;;;4991330;28;98540;-74
2022/08/12 15:09:06;;;;;;;8.55;2.20;;;;;;;;;;4991193;28;99916;-74
2022/08/12 15:11:34;;;;;;;7.00;2.00;;;;;;;;;;4993502;28;99496;-78
2022/08/12 15:14:21;;;;;;;2.97;2.30;;;;;;;;;;5000468;28;99291;-75
2022/08/12 15:16:47;;;;;;;6.38;1.90;;;;;;;;;;4998708;28;99757;-73
2022/08/12 15:19:15;;;;;;;8.10;2.40;;;;;;;;;;5005145;28;99753;-73
2022/08/12 15:22:01;;;;;;;7.45;2.03;;;;;;;;;;4986003;28;100026;-73
2022/08/12 15:24:47;;;;;;;5.35;1.85;;;;;;;;;;4992704;28;101052;-72
2022/08/12 15:27:14;;;;;;;7.00;2.15;;;;;;;;;;5009946;28;99003;-75
2022/08/12 15:29:47;;;;;;;6.88;1.95;;;;;;;;;;5000863;28;99321;-77
2022/08/12 15:32:17;;;;;;;3.70;2.15;;;;;;;;;;4994851;28;101395;-77
2022/08/12 15:34:57;;;;;;;6.28;2.30;;;;;;;;;;4996712;28;98839;-75
2022/08/12 15:37:27;;;;;;;3.92;2.20;;;;;;;;;;4992824;28;99357;-77
2022/08/12 15:40:13;;;;;;;1.92;1.67;;;;;;;;;;5004741;28;98915;-73
2022/08/12 15:42:46;;;;;;;7.40;2.17;;;;;;;;;;5013372;28;99073;-73
2022/08/12 15:45:16;;;;;;;6.45;2.75;;;;;;;;;;4992647;28;99366;-73
2022/08/12 15:47:51;;;;;;;11.13;2.20;;;;;;;;;;4992589;28;98570;-75
2022/08/12 15:50:29;;;;;;;4.50;2.33;;;;;;;;;;4992540;28;100076;-75
2022/08/12 15:52:57;;;;;;;3.42;2.20;;;;;;;;;;4992141;28;100196;-76
2022/08/12 15:55:40;;;;;;;6.50;2.20;;;;;;;;;;4992835;28;98743;-76
2022/08/12 15:58:12;;;;;;;2.97;2.25;;;;;;;;;;4996922;28;99806;-76
2022/08/12 16:00:42;;;;;;;3.20;2.90;;;;;;;;;;4993363;28;98639;-76
2022/08/12 16:03:09;;;;;;;2.58;2.33;;;;;;;;;;4993249;28;99052;-75
2022/08/12 16:05:39;;;;;;;3.35;2.15;;;;;;;;;;4993074;28;100382;-75
2022/08/12 16:08:28;;;;;;;4.43;2.17;;;;;;;;;;4993953;28;98721;-76
2022/08/12 16:10:55;;;;;;;1.98;1.88;;;;;;;;;;4992457;28;98549;-75
2022/08/12 16:13:22;;;;;;;7.80;2.17;;;;;;;;;;4992788;28;100298;-76
2022/08/12 16:16:01;;;;;;;3.10;2.03;;;;;;;;;;4992625;28;99307;-77
2022/08/12 16:18:30;;;;;;;6.88;2.78;;;;;;;;;;4993938;28;100842;-76
2022/08/12 16:20:59;;;;;;;8.43;2.47;;;;;;;;;;5015719;28;99589;-76
2022/08/12 16:23:25;;;;;;;7.35;2.40;;;;;;;;;;4993037;28;99027;-75
2022/08/12 16:26:12;;;;;;;4.13;1.92;;;;;;;;;;4992005;28;99399;-74
2022/08/12 16:28:45;;;;;;;6.40;2.50;;;;;;;;;;4992716;28;99790;-74
2022/08/12 16:31:13;;;;;;;4.18;3.88;;;;;;;;;;4992523;28;99157;-77
2022/08/12 16:33:50;;;;;;;6.43;2.47;;;;;;;;;;4992937;28;98561;-78
2022/08/12 16:36:26;;;;;;;8.18;2.03;;;;;;;;;;4993816;28;100007;-73
2022/08/12 16:38:53;;;;;;;2.75;1.90;;;;;;;;;;4991189;28;99231;-74
2022/08/12 16:41:20;;;;;;;6.05;2.20;;;;;;;;;;4991995;28;100826;-74
2022/08/12 16:43:47;;;;;;;5.38;2.45;;;;;;;;;;4996009;28;98481;-74
2022/08/12 16:46:15;;;;;;;3.80;2.28;;;;;;;;;;4992010;28;100479;-74
2022/08/12 16:48:58;;;;;;;2.67;2.13;;;;;;;;;;4994254;27;98632;-74
2022/08/12 16:51:29;;;;;;;;;;;;;;;;;;4993257;28;98851;-74
2022/08/12 16:53:55;;;;;;;8.43;3.05;;;;;;;;;;4991771;28;130035;-74
2022/08/12 16:56:25;;;;;;;19.48;2.60;;;;;;;;;;4992659;28;98942;-74
2022/08/12 16:58:56;;;;;;;3.88;2.60;;;;;;;;;;4992420;28;99537;-74
2022/08/12 17:01:22;;;;;;;10.73;2.42;;;;;;;;;;4992314;28;99414;-74
2022/08/12 17:04:04;;;;;;;2.42;1.98;;;;;;;;;;4991870;28;98537;-74
2022/08/12 17:06:34;;;;;;;3.97;2.13;;;;;;;;;;4994617;28;99797;-74
2022/08/12 17:09:03;;;;;;;4.15;2.08;;;;;;;;;;4991794;28;98596;-74
2022/08/12 17:11:42;;;;;;;2.08;1.90;;;;;;;;;;4991775;28;99925;-74
2022/08/12 17:14:09;;;;;;;3.05;1.90;;;;;;;;;;4991576;28;99644;-74